sensor_id;sensor_type;location;lat;lon;timestamp;P1;durP1;ratioP1;P2;durP2;ratioP2
29380;SDS011;16364;52.490;13.326;2023-04-25T00:02:00;3.63;;;2.20;;
29380;SDS011;16364;52.490;13.326;2023-04-25T00:04:26;4.63;;;2.03;;
29380;SDS011;16364;52.490;13.326;2023-04-25T00:06:52;3.03;;;2.20;;
29380;SDS011;16364;52.490;13.326;2023-04-25T00:09:17;2.83;;;1.80;;
29380;SDS011;16364;52.490;13.326;2023-04-25T00:11:42;3.20;;;2.37;;
29380;SDS011;16364;52.490;13.326;2023-04-25T00:14:07;4.77;;;1.83;;
29380;SDS011;16364;52.490;13.326;2023-04-25T00:16:33;3.03;;;1.63;;
29380;SDS011;16364;52.490;13.326;2023-04-25T00:19:00;6.93;;;2.07;;
29380;SDS011;16364;52.490;13.326;2023-04-25T00:21:26;4.57;;;1.70;;
29380;SDS011;16364;52.490;13.326;2023-04-25T00:23:53;2.63;;;2.20;;
29380;SDS011;16364;52.490;13.326;2023-04-25T00:26:18;3.80;;;1.50;;
29380;SDS011;16364;52.490;13.326;2023-04-25T00:28:43;2.27;;;1.80;;
29380;SDS011;16364;52.490;13.326;2023-04-25T00:31:09;4.93;;;1.90;;
29380;SDS011;16364;52.490;13.326;2023-04-25T00:33:34;2.80;;;1.93;;
29380;SDS011;16364;52.490;13.326;2023-04-25T00:35:59;5.10;;;2.10;;
29380;SDS011;16364;52.490;13.326;2023-04-25T00:38:25;4.13;;;1.80;;
29380;SDS011;16364;52.490;13.326;2023-04-25T00:40:50;6.23;;;2.27;;
29380;SDS011;16364;52.490;13.326;2023-04-25T00:43:15;3.70;;;1.90;;
29380;SDS011;16364;52.490;13.326;2023-04-25T00:45:40;3.23;;;2.20;;
29380;SDS011;16364;52.490;13.326;2023-04-25T00:48:06;2.20;;;2.00;;
29380;SDS011;16364;52.490;13.326;2023-04-25T00:50:35;5.77;;;2.33;;
29380;SDS011;16364;52.490;13.326;2023-04-25T00:53:01;5.77;;;2.37;;
29380;SDS011;16364;52.490;13.326;2023-04-25T00:55:27;7.60;;;2.20;;
29380;SDS011;16364;52.490;13.326;2023-04-25T00:57:52;7.33;;;2.07;;
29380;SDS011;16364;52.490;13.326;2023-04-25T01:00:17;4.30;;;2.30;;
29380;SDS011;16364;52.490;13.326;2023-04-25T01:02:43;4.10;;;2.00;;
29380;SDS011;16364;52.490;13.326;2023-04-25T01:05:09;7.13;;;2.40;;
29380;SDS011;16364;52.490;13.326;2023-04-25T01:07:35;4.17;;;2.43;;
29380;SDS011;16364;52.490;13.326;2023-04-25T01:10:00;5.70;;;2.20;;
29380;SDS011;16364;52.490;13.326;2023-04-25T01:12:26;4.23;;;2.80;;
29380;SDS011;16364;52.490;13.326;2023-04-25T01:14:51;2.93;;;2.10;;
29380;SDS011;16364;52.490;13.326;2023-04-25T01:17:19;3.47;;;2.30;;
29380;SDS011;16364;52.490;13.326;2023-04-25T01:19:44;6.73;;;2.40;;
29380;SDS011;16364;52.490;13.326;2023-04-25T01:22:12;3.43;;;3.13;;
29380;SDS011;16364;52.490;13.326;2023-04-25T01:24:39;9.53;;;2.63;;
29380;SDS011;16364;52.490;13.326;2023-04-25T01:27:04;3.10;;;2.00;;
29380;SDS011;16364;52.490;13.326;2023-04-25T01:29:30;3.70;;;1.93;;
29380;SDS011;16364;52.490;13.326;2023-04-25T01:31:55;4.00;;;3.00;;
29380;SDS011;16364;52.490;13.326;2023-04-25T01:34:21;5.60;;;2.30;;
29380;SDS011;16364;52.490;13.326;2023-04-25T01:36:48;2.80;;;2.20;;
29380;SDS011;16364;52.490;13.326;2023-04-25T01:39:13;4.20;;;3.10;;
29380;SDS011;16364;52.490;13.326;2023-04-25T01:41:40;2.93;;;1.87;;
29380;SDS011;16364;52.490;13.326;2023-04-25T01:44:05;2.43;;;2.23;;
29380;SDS011;16364;52.490;13.326;2023-04-25T01:46:30;3.33;;;2.20;;
29380;SDS011;16364;52.490;13.326;2023-04-25T01:48:56;3.33;;;2.20;;
29380;SDS011;16364;52.490;13.326;2023-04-25T01:51:21;3.20;;;2.60;;
29380;SDS011;16364;52.490;13.326;2023-04-25T01:53:46;6.73;;;2.10;;
29380;SDS011;16364;52.490;13.326;2023-04-25T01:56:11;4.33;;;2.80;;
29380;SDS011;16364;52.490;13.326;2023-04-25T01:58:36;6.30;;;2.50;;
29380;SDS011;16364;52.490;13.326;2023-04-25T02:01:02;4.80;;;2.50;;
29380;SDS011;16364;52.490;13.326;2023-04-25T02:03:27;6.53;;;2.73;;
29380;SDS011;16364;52.490;13.326;2023-04-25T02:05:52;3.63;;;2.50;;
29380;SDS011;16364;52.490;13.326;2023-04-25T02:08:18;4.70;;;2.13;;
29380;SDS011;16364;52.490;13.326;2023-04-25T02:10:43;3.43;;;2.40;;
29380;SDS011;16364;52.490;13.326;2023-04-25T02:13:09;5.30;;;2.00;;
29380;SDS011;16364;52.490;13.326;2023-04-25T02:15:34;2.97;;;2.40;;
29380;SDS011;16364;52.490;13.326;2023-04-25T02:18:00;9.03;;;3.23;;
29380;SDS011;16364;52.490;13.326;2023-04-25T02:20:25;6.00;;;3.47;;
29380;SDS011;16364;52.490;13.326;2023-04-25T02:22:51;5.87;;;3.13;;
29380;SDS011;16364;52.490;13.326;2023-04-25T02:25:17;5.40;;;3.00;;
29380;SDS011;16364;52.490;13.326;2023-04-25T02:27:42;3.43;;;2.90;;
29380;SDS011;16364;52.490;13.326;2023-04-25T02:30:08;3.33;;;2.87;;
29380;SDS011;16364;52.490;13.326;2023-04-25T02:32:33;6.27;;;3.30;;
29380;SDS011;16364;52.490;13.326;2023-04-25T02:34:59;12.67;;;4.10;;
29380;SDS011;16364;52.490;13.326;2023-04-25T02:37:28;4.77;;;2.90;;
29380;SDS011;16364;52.490;13.326;2023-04-25T02:39:53;5.13;;;2.77;;
29380;SDS011;16364;52.490;13.326;2023-04-25T02:42:19;6.70;;;3.90;;
29380;SDS011;16364;52.490;13.326;2023-04-25T02:44:44;3.40;;;2.70;;
29380;SDS011;16364;52.490;13.326;2023-04-25T02:47:09;4.67;;;3.10;;
29380;SDS011;16364;52.490;13.326;2023-04-25T02:49:35;4.10;;;3.50;;
29380;SDS011;16364;52.490;13.326;2023-04-25T02:52:00;4.40;;;3.27;;
29380;SDS011;16364;52.490;13.326;2023-04-25T02:54:25;3.30;;;3.00;;
29380;SDS011;16364;52.490;13.326;2023-04-25T02:56:50;6.13;;;3.50;;
29380;SDS011;16364;52.490;13.326;2023-04-25T02:59:16;6.03;;;3.33;;
29380;SDS011;16364;52.490;13.326;2023-04-25T03:01:41;8.60;;;3.03;;
29380;SDS011;16364;52.490;13.326;2023-04-25T03:04:06;6.60;;;4.07;;
29380;SDS011;16364;52.490;13.326;2023-04-25T03:06:31;5.97;;;3.20;;
29380;SDS011;16364;52.490;13.326;2023-04-25T03:08:57;7.50;;;3.47;;
29380;SDS011;16364;52.490;13.326;2023-04-25T03:11:23;5.60;;;3.53;;
29380;SDS011;16364;52.490;13.326;2023-04-25T03:13:48;5.30;;;3.00;;
29380;SDS011;16364;52.490;13.326;2023-04-25T03:16:14;6.17;;;4.30;;
29380;SDS011;16364;52.490;13.326;2023-04-25T03:18:39;5.40;;;3.13;;
29380;SDS011;16364;52.490;13.326;2023-04-25T03:21:04;10.73;;;3.40;;
29380;SDS011;16364;52.490;13.326;2023-04-25T03:23:29;4.57;;;3.30;;
29380;SDS011;16364;52.490;13.326;2023-04-25T03:25:55;6.87;;;3.40;;
29380;SDS011;16364;52.490;13.326;2023-04-25T03:28:21;5.10;;;3.97;;
29380;SDS011;16364;52.490;13.326;2023-04-25T03:30:48;12.10;;;3.80;;
29380;SDS011;16364;52.490;13.326;2023-04-25T03:33:13;5.90;;;3.90;;
29380;SDS011;16364;52.490;13.326;2023-04-25T03:35:38;6.50;;;3.90;;
29380;SDS011;16364;52.490;13.326;2023-04-25T03:38:03;4.83;;;4.20;;
29380;SDS011;16364;52.490;13.326;2023-04-25T03:40:28;4.27;;;3.87;;
29380;SDS011;16364;52.490;13.326;2023-04-25T03:42:54;4.50;;;3.43;;
29380;SDS011;16364;52.490;13.326;2023-04-25T03:45:19;8.53;;;3.97;;
29380;SDS011;16364;52.490;13.326;2023-04-25T03:47:44;4.00;;;3.60;;
29380;SDS011;16364;52.490;13.326;2023-04-25T03:50:09;7.13;;;3.87;;
29380;SDS011;16364;52.490;13.326;2023-04-25T03:52:35;4.27;;;3.23;;
29380;SDS011;16364;52.490;13.326;2023-04-25T03:55:00;9.00;;;3.97;;
29380;SDS011;16364;52.490;13.326;2023-04-25T03:57:25;4.53;;;3.33;;
29380;SDS011;16364;52.490;13.326;2023-04-25T03:59:50;5.97;;;2.80;;
29380;SDS011;16364;52.490;13.326;2023-04-25T04:02:17;7.13;;;4.10;;
29380;SDS011;16364;52.490;13.326;2023-04-25T04:04:42;6.13;;;4.70;;
29380;SDS011;16364;52.490;13.326;2023-04-25T04:07:09;4.57;;;3.43;;
29380;SDS011;16364;52.490;13.326;2023-04-25T04:09:34;3.67;;;3.37;;
29380;SDS011;16364;52.490;13.326;2023-04-25T04:11:59;9.00;;;3.93;;
29380;SDS011;16364;52.490;13.326;2023-04-25T04:14:26;3.43;;;3.13;;
29380;SDS011;16364;52.490;13.326;2023-04-25T04:16:51;5.23;;;2.97;;
29380;SDS011;16364;52.490;13.326;2023-04-25T04:19:17;6.30;;;3.13;;
29380;SDS011;16364;52.490;13.326;2023-04-25T04:21:42;7.60;;;2.97;;
29380;SDS011;16364;52.490;13.326;2023-04-25T04:24:07;9.67;;;3.67;;
29380;SDS011;16364;52.490;13.326;2023-04-25T04:26:33;6.53;;;3.63;;
29380;SDS011;16364;52.490;13.326;2023-04-25T04:28:59;6.00;;;3.30;;
29380;SDS011;16364;52.490;13.326;2023-04-25T04:31:25;4.57;;;4.17;;
29380;SDS011;16364;52.490;13.326;2023-04-25T04:33:50;6.10;;;3.37;;
29380;SDS011;16364;52.490;13.326;2023-04-25T04:36:16;7.07;;;5.37;;
29380;SDS011;16364;52.490;13.326;2023-04-25T04:38:44;7.37;;;3.33;;
29380;SDS011;16364;52.490;13.326;2023-04-25T04:41:09;3.87;;;3.50;;
29380;SDS011;16364;52.490;13.326;2023-04-25T04:43:35;8.00;;;3.13;;
29380;SDS011;16364;52.490;13.326;2023-04-25T04:46:01;5.40;;;3.10;;
29380;SDS011;16364;52.490;13.326;2023-04-25T04:48:28;6.57;;;3.73;;
29380;SDS011;16364;52.490;13.326;2023-04-25T04:50:53;6.07;;;4.07;;
29380;SDS011;16364;52.490;13.326;2023-04-25T04:53:18;3.60;;;2.80;;
29380;SDS011;16364;52.490;13.326;2023-04-25T04:55:44;5.73;;;3.83;;
29380;SDS011;16364;52.490;13.326;2023-04-25T04:58:09;4.17;;;3.10;;
29380;SDS011;16364;52.490;13.326;2023-04-25T05:00:34;5.07;;;3.53;;
29380;SDS011;16364;52.490;13.326;2023-04-25T05:02:59;7.30;;;3.53;;
29380;SDS011;16364;52.490;13.326;2023-04-25T05:05:25;10.10;;;4.27;;
29380;SDS011;16364;52.490;13.326;2023-04-25T05:07:50;6.53;;;3.00;;
29380;SDS011;16364;52.490;13.326;2023-04-25T05:10:16;6.90;;;4.27;;
29380;SDS011;16364;52.490;13.326;2023-04-25T05:12:41;8.30;;;3.80;;
29380;SDS011;16364;52.490;13.326;2023-04-25T05:15:07;5.40;;;3.37;;
29380;SDS011;16364;52.490;13.326;2023-04-25T05:17:32;6.60;;;3.00;;
29380;SDS011;16364;52.490;13.326;2023-04-25T05:19:57;7.17;;;3.63;;
29380;SDS011;16364;52.490;13.326;2023-04-25T05:22:23;8.27;;;3.40;;
29380;SDS011;16364;52.490;13.326;2023-04-25T05:24:48;4.07;;;3.20;;
29380;SDS011;16364;52.490;13.326;2023-04-25T05:27:15;6.70;;;3.43;;
29380;SDS011;16364;52.490;13.326;2023-04-25T05:29:41;6.40;;;3.97;;
29380;SDS011;16364;52.490;13.326;2023-04-25T05:32:06;6.37;;;3.20;;
29380;SDS011;16364;52.490;13.326;2023-04-25T05:34:32;8.37;;;3.87;;
29380;SDS011;16364;52.490;13.326;2023-04-25T05:36:57;5.20;;;3.70;;
29380;SDS011;16364;52.490;13.326;2023-04-25T05:39:23;4.87;;;3.30;;
29380;SDS011;16364;52.490;13.326;2023-04-25T05:41:48;9.13;;;3.40;;
29380;SDS011;16364;52.490;13.326;2023-04-25T05:44:13;4.77;;;4.30;;
29380;SDS011;16364;52.490;13.326;2023-04-25T05:46:40;5.30;;;3.60;;
29380;SDS011;16364;52.490;13.326;2023-04-25T05:49:06;4.53;;;3.47;;
29380;SDS011;16364;52.490;13.326;2023-04-25T05:51:31;7.47;;;4.33;;
29380;SDS011;16364;52.490;13.326;2023-04-25T05:53:56;8.40;;;4.37;;
29380;SDS011;16364;52.490;13.326;2023-04-25T05:56:21;4.43;;;3.30;;
29380;SDS011;16364;52.490;13.326;2023-04-25T05:58:47;5.53;;;5.03;;
29380;SDS011;16364;52.490;13.326;2023-04-25T06:01:12;8.43;;;4.70;;
29380;SDS011;16364;52.490;13.326;2023-04-25T06:03:37;8.63;;;3.60;;
29380;SDS011;16364;52.490;13.326;2023-04-25T06:06:03;7.20;;;4.23;;
29380;SDS011;16364;52.490;13.326;2023-04-25T06:08:28;10.63;;;4.60;;
29380;SDS011;16364;52.490;13.326;2023-04-25T06:10:53;8.87;;;4.50;;
29380;SDS011;16364;52.490;13.326;2023-04-25T06:13:18;9.10;;;4.37;;
29380;SDS011;16364;52.490;13.326;2023-04-25T06:15:44;4.57;;;4.03;;
29380;SDS011;16364;52.490;13.326;2023-04-25T06:18:09;5.67;;;4.20;;
29380;SDS011;16364;52.490;13.326;2023-04-25T06:20:34;7.90;;;3.83;;
29380;SDS011;16364;52.490;13.326;2023-04-25T06:22:59;4.50;;;4.10;;
29380;SDS011;16364;52.490;13.326;2023-04-25T06:25:25;8.13;;;4.73;;
29380;SDS011;16364;52.490;13.326;2023-04-25T06:27:50;5.90;;;4.50;;
29380;SDS011;16364;52.490;13.326;2023-04-25T06:30:15;8.80;;;4.73;;
29380;SDS011;16364;52.490;13.326;2023-04-25T06:32:43;8.30;;;4.20;;
29380;SDS011;16364;52.490;13.326;2023-04-25T06:35:08;9.40;;;5.03;;
29380;SDS011;16364;52.490;13.326;2023-04-25T06:37:33;7.50;;;4.30;;
29380;SDS011;16364;52.490;13.326;2023-04-25T06:39:59;9.13;;;4.33;;
29380;SDS011;16364;52.490;13.326;2023-04-25T06:42:24;6.10;;;4.10;;
29380;SDS011;16364;52.490;13.326;2023-04-25T06:44:49;8.13;;;5.30;;
29380;SDS011;16364;52.490;13.326;2023-04-25T06:47:14;7.83;;;4.20;;
29380;SDS011;16364;52.490;13.326;2023-04-25T06:49:40;7.20;;;4.43;;
29380;SDS011;16364;52.490;13.326;2023-04-25T06:52:05;9.20;;;5.07;;
29380;SDS011;16364;52.490;13.326;2023-04-25T06:54:30;7.80;;;4.50;;
29380;SDS011;16364;52.490;13.326;2023-04-25T06:56:55;4.90;;;3.97;;
29380;SDS011;16364;52.490;13.326;2023-04-25T06:59:21;5.00;;;3.50;;
29380;SDS011;16364;52.490;13.326;2023-04-25T07:01:47;6.93;;;3.67;;
29380;SDS011;16364;52.490;13.326;2023-04-25T07:04:12;6.90;;;3.70;;
29380;SDS011;16364;52.490;13.326;2023-04-25T07:06:37;12.77;;;3.40;;
29380;SDS011;16364;52.490;13.326;2023-04-25T07:09:09;5.93;;;4.07;;
29380;SDS011;16364;52.490;13.326;2023-04-25T07:11:37;6.47;;;4.40;;
29380;SDS011;16364;52.490;13.326;2023-04-25T07:14:03;7.80;;;3.30;;
29380;SDS011;16364;52.490;13.326;2023-04-25T07:16:28;8.83;;;3.90;;
29380;SDS011;16364;52.490;13.326;2023-04-25T07:18:53;6.67;;;3.77;;
29380;SDS011;16364;52.490;13.326;2023-04-25T07:21:19;6.30;;;4.00;;
29380;SDS011;16364;52.490;13.326;2023-04-25T07:23:44;4.83;;;3.60;;
29380;SDS011;16364;52.490;13.326;2023-04-25T07:26:09;7.70;;;4.10;;
29380;SDS011;16364;52.490;13.326;2023-04-25T07:28:34;11.17;;;5.07;;
29380;SDS011;16364;52.490;13.326;2023-04-25T07:31:00;6.73;;;4.20;;
29380;SDS011;16364;52.490;13.326;2023-04-25T07:33:25;9.40;;;4.20;;
29380;SDS011;16364;52.490;13.326;2023-04-25T07:35:50;3.40;;;3.10;;
29380;SDS011;16364;52.490;13.326;2023-04-25T07:38:15;6.17;;;3.80;;
29380;SDS011;16364;52.490;13.326;2023-04-25T07:40:41;4.83;;;3.80;;
29380;SDS011;16364;52.490;13.326;2023-04-25T07:43:06;5.00;;;3.87;;
29380;SDS011;16364;52.490;13.326;2023-04-25T07:45:31;12.40;;;3.60;;
29380;SDS011;16364;52.490;13.326;2023-04-25T07:47:57;11.97;;;4.40;;
29380;SDS011;16364;52.490;13.326;2023-04-25T07:50:22;9.10;;;3.93;;
29380;SDS011;16364;52.490;13.326;2023-04-25T07:52:47;7.17;;;4.00;;
29380;SDS011;16364;52.490;13.326;2023-04-25T07:55:12;7.50;;;4.00;;
29380;SDS011;16364;52.490;13.326;2023-04-25T07:57:38;17.10;;;4.93;;
29380;SDS011;16364;52.490;13.326;2023-04-25T08:00:03;8.80;;;3.80;;
29380;SDS011;16364;52.490;13.326;2023-04-25T08:02:29;10.70;;;3.50;;
29380;SDS011;16364;52.490;13.326;2023-04-25T08:04:55;12.60;;;3.60;;
29380;SDS011;16364;52.490;13.326;2023-04-25T08:07:20;12.60;;;4.70;;
29380;SDS011;16364;52.490;13.326;2023-04-25T08:09:45;12.67;;;4.23;;
29380;SDS011;16364;52.490;13.326;2023-04-25T08:12:11;14.17;;;3.90;;
29380;SDS011;16364;52.490;13.326;2023-04-25T08:14:36;18.30;;;3.80;;
29380;SDS011;16364;52.490;13.326;2023-04-25T08:17:02;16.00;;;3.13;;
29380;SDS011;16364;52.490;13.326;2023-04-25T08:19:31;11.70;;;3.73;;
29380;SDS011;16364;52.490;13.326;2023-04-25T08:21:56;12.17;;;3.50;;
29380;SDS011;16364;52.490;13.326;2023-04-25T08:24:22;14.80;;;3.80;;
29380;SDS011;16364;52.490;13.326;2023-04-25T08:26:47;15.10;;;3.73;;
29380;SDS011;16364;52.490;13.326;2023-04-25T08:29:13;9.73;;;3.60;;
29380;SDS011;16364;52.490;13.326;2023-04-25T08:31:38;10.93;;;4.07;;
29380;SDS011;16364;52.490;13.326;2023-04-25T08:34:03;13.47;;;5.20;;
29380;SDS011;16364;52.490;13.326;2023-04-25T08:36:28;6.83;;;2.63;;
29380;SDS011;16364;52.490;13.326;2023-04-25T08:38:53;13.10;;;2.90;;
29380;SDS011;16364;52.490;13.326;2023-04-25T08:41:19;8.13;;;3.20;;
29380;SDS011;16364;52.490;13.326;2023-04-25T08:43:46;10.10;;;2.57;;
29380;SDS011;16364;52.490;13.326;2023-04-25T08:46:12;17.00;;;4.10;;
29380;SDS011;16364;52.490;13.326;2023-04-25T08:48:40;15.17;;;4.20;;
29380;SDS011;16364;52.490;13.326;2023-04-25T08:51:06;10.70;;;2.77;;
29380;SDS011;16364;52.490;13.326;2023-04-25T08:53:32;8.00;;;2.30;;
29380;SDS011;16364;52.490;13.326;2023-04-25T08:55:58;11.03;;;2.93;;
29380;SDS011;16364;52.490;13.326;2023-04-25T08:58:24;10.43;;;2.70;;
29380;SDS011;16364;52.490;13.326;2023-04-25T09:00:50;11.30;;;2.87;;
29380;SDS011;16364;52.490;13.326;2023-04-25T09:03:16;11.90;;;2.97;;
29380;SDS011;16364;52.490;13.326;2023-04-25T09:05:41;4.10;;;2.10;;
29380;SDS011;16364;52.490;13.326;2023-04-25T09:08:06;4.40;;;1.83;;
29380;SDS011;16364;52.490;13.326;2023-04-25T09:10:32;4.80;;;2.27;;
29380;SDS011;16364;52.490;13.326;2023-04-25T09:15:29;5.70;;;2.20;;
29380;SDS011;16364;52.490;13.326;2023-04-25T09:17:58;3.83;;;1.97;;
29380;SDS011;16364;52.490;13.326;2023-04-25T09:20:23;4.23;;;2.40;;
29380;SDS011;16364;52.490;13.326;2023-04-25T09:22:49;4.73;;;1.90;;
29380;SDS011;16364;52.490;13.326;2023-04-25T09:25:25;4.67;;;2.43;;
29380;SDS011;16364;52.490;13.326;2023-04-25T09:27:51;6.20;;;2.20;;
29380;SDS011;16364;52.490;13.326;2023-04-25T09:30:17;8.13;;;2.20;;
29380;SDS011;16364;52.490;13.326;2023-04-25T09:32:43;6.23;;;2.00;;
29380;SDS011;16364;52.490;13.326;2023-04-25T09:35:08;7.50;;;2.47;;
29380;SDS011;16364;52.490;13.326;2023-04-25T09:37:34;10.53;;;2.70;;
29380;SDS011;16364;52.490;13.326;2023-04-25T09:40:00;7.47;;;2.60;;
29380;SDS011;16364;52.490;13.326;2023-04-25T09:42:28;7.27;;;2.10;;
29380;SDS011;16364;52.490;13.326;2023-04-25T09:44:56;9.13;;;2.10;;
29380;SDS011;16364;52.490;13.326;2023-04-25T09:47:25;7.73;;;2.40;;
29380;SDS011;16364;52.490;13.326;2023-04-25T09:49:51;7.53;;;2.23;;
29380;SDS011;16364;52.490;13.326;2023-04-25T09:52:23;9.50;;;2.07;;
29380;SDS011;16364;52.490;13.326;2023-04-25T09:54:49;7.70;;;2.20;;
29380;SDS011;16364;52.490;13.326;2023-04-25T09:57:24;10.13;;;2.80;;
29380;SDS011;16364;52.490;13.326;2023-04-25T09:59:50;5.80;;;2.07;;
29380;SDS011;16364;52.490;13.326;2023-04-25T10:02:19;9.60;;;3.07;;
29380;SDS011;16364;52.490;13.326;2023-04-25T10:04:48;8.53;;;2.03;;
29380;SDS011;16364;52.490;13.326;2023-04-25T10:07:16;5.17;;;1.90;;
29380;SDS011;16364;52.490;13.326;2023-04-25T10:09:41;4.90;;;1.97;;
29380;SDS011;16364;52.490;13.326;2023-04-25T10:12:07;5.07;;;2.20;;
29380;SDS011;16364;52.490;13.326;2023-04-25T10:14:33;4.03;;;1.80;;
29380;SDS011;16364;52.490;13.326;2023-04-25T10:16:58;5.13;;;1.70;;
29380;SDS011;16364;52.490;13.326;2023-04-25T10:19:24;6.97;;;2.30;;
29380;SDS011;16364;52.490;13.326;2023-04-25T10:21:58;4.80;;;2.40;;
29380;SDS011;16364;52.490;13.326;2023-04-25T10:24:27;5.07;;;1.70;;
29380;SDS011;16364;52.490;13.326;2023-04-25T10:26:53;3.33;;;1.70;;
29380;SDS011;16364;52.490;13.326;2023-04-25T10:29:21;7.17;;;2.20;;
29380;SDS011;16364;52.490;13.326;2023-04-25T10:31:48;8.37;;;1.80;;
29380;SDS011;16364;52.490;13.326;2023-04-25T10:34:14;3.20;;;1.80;;
29380;SDS011;16364;52.490;13.326;2023-04-25T10:36:40;11.53;;;2.30;;
29380;SDS011;16364;52.490;13.326;2023-04-25T10:39:06;9.10;;;2.30;;
29380;SDS011;16364;52.490;13.326;2023-04-25T10:41:32;4.27;;;1.80;;
29380;SDS011;16364;52.490;13.326;2023-04-25T10:44:10;6.87;;;2.27;;
29380;SDS011;16364;52.490;13.326;2023-04-25T10:46:35;6.23;;;2.10;;
29380;SDS011;16364;52.490;13.326;2023-04-25T10:49:01;7.20;;;2.57;;
29380;SDS011;16364;52.490;13.326;2023-04-25T10:58:43;4.90;;;1.80;;
29380;SDS011;16364;52.490;13.326;2023-04-25T11:01:09;6.47;;;2.00;;
29380;SDS011;16364;52.490;13.326;2023-04-25T11:03:38;6.20;;;1.70;;
29380;SDS011;16364;52.490;13.326;2023-04-25T11:06:03;3.60;;;2.07;;
29380;SDS011;16364;52.490;13.326;2023-04-25T11:08:34;5.07;;;2.40;;
29380;SDS011;16364;52.490;13.326;2023-04-25T11:11:02;9.10;;;1.87;;
29380;SDS011;16364;52.490;13.326;2023-04-25T11:13:30;6.43;;;1.80;;
29380;SDS011;16364;52.490;13.326;2023-04-25T11:15:55;4.83;;;1.93;;
29380;SDS011;16364;52.490;13.326;2023-04-25T11:18:20;6.97;;;1.70;;
29380;SDS011;16364;52.490;13.326;2023-04-25T11:20:46;3.10;;;1.30;;
29380;SDS011;16364;52.490;13.326;2023-04-25T11:23:12;4.87;;;2.30;;
29380;SDS011;16364;52.490;13.326;2023-04-25T11:25:38;3.67;;;1.73;;
29380;SDS011;16364;52.490;13.326;2023-04-25T11:28:03;3.37;;;1.80;;
29380;SDS011;16364;52.490;13.326;2023-04-25T11:30:29;2.53;;;1.40;;
29380;SDS011;16364;52.490;13.326;2023-04-25T11:32:55;3.33;;;1.57;;
29380;SDS011;16364;52.490;13.326;2023-04-25T11:35:21;7.30;;;3.23;;
29380;SDS011;16364;52.490;13.326;2023-04-25T11:37:48;1.53;;;1.20;;
29380;SDS011;16364;52.490;13.326;2023-04-25T11:40:13;3.00;;;1.50;;
29380;SDS011;16364;52.490;13.326;2023-04-25T11:42:39;3.57;;;1.70;;
29380;SDS011;16364;52.490;13.326;2023-04-25T11:45:04;3.53;;;1.63;;
29380;SDS011;16364;52.490;13.326;2023-04-25T11:47:31;4.47;;;1.67;;
29380;SDS011;16364;52.490;13.326;2023-04-25T11:50:00;4.30;;;1.30;;
29380;SDS011;16364;52.490;13.326;2023-04-25T11:52:38;4.77;;;2.40;;
29380;SDS011;16364;52.490;13.326;2023-04-25T11:57:38;3.30;;;1.77;;
29380;SDS011;16364;52.490;13.326;2023-04-25T12:00:05;2.83;;;1.53;;
29380;SDS011;16364;52.490;13.326;2023-04-25T12:02:31;4.17;;;1.90;;
29380;SDS011;16364;52.490;13.326;2023-04-25T12:04:58;4.03;;;1.60;;
29380;SDS011;16364;52.490;13.326;2023-04-25T12:07:28;3.83;;;1.80;;
29380;SDS011;16364;52.490;13.326;2023-04-25T12:09:53;3.80;;;1.40;;
29380;SDS011;16364;52.490;13.326;2023-04-25T12:12:19;3.27;;;1.57;;
29380;SDS011;16364;52.490;13.326;2023-04-25T12:14:46;3.80;;;1.67;;
29380;SDS011;16364;52.490;13.326;2023-04-25T12:17:12;8.63;;;1.67;;
29380;SDS011;16364;52.490;13.326;2023-04-25T12:19:38;2.97;;;1.50;;
29380;SDS011;16364;52.490;13.326;2023-04-25T12:22:19;8.93;;;1.50;;
29380;SDS011;16364;52.490;13.326;2023-04-25T12:24:46;3.63;;;1.90;;
29380;SDS011;16364;52.490;13.326;2023-04-25T12:27:13;5.23;;;1.77;;
29380;SDS011;16364;52.490;13.326;2023-04-25T12:29:49;5.60;;;1.87;;
29380;SDS011;16364;52.490;13.326;2023-04-25T12:32:18;4.10;;;1.70;;
29380;SDS011;16364;52.490;13.326;2023-04-25T12:34:44;4.37;;;1.50;;
29380;SDS011;16364;52.490;13.326;2023-04-25T12:37:10;6.00;;;1.70;;
29380;SDS011;16364;52.490;13.326;2023-04-25T12:39:35;7.57;;;1.97;;
29380;SDS011;16364;52.490;13.326;2023-04-25T12:42:00;5.10;;;2.00;;
29380;SDS011;16364;52.490;13.326;2023-04-25T12:44:26;5.97;;;1.70;;
29380;SDS011;16364;52.490;13.326;2023-04-25T12:46:51;4.30;;;1.60;;
29380;SDS011;16364;52.490;13.326;2023-04-25T12:49:17;11.13;;;1.90;;
29380;SDS011;16364;52.490;13.326;2023-04-25T12:51:42;3.53;;;1.77;;
29380;SDS011;16364;52.490;13.326;2023-04-25T12:54:08;4.97;;;1.40;;
29380;SDS011;16364;52.490;13.326;2023-04-25T12:56:33;5.53;;;1.90;;
29380;SDS011;16364;52.490;13.326;2023-04-25T12:58:59;3.03;;;2.73;;
29380;SDS011;16364;52.490;13.326;2023-04-25T13:01:24;2.93;;;1.40;;
29380;SDS011;16364;52.490;13.326;2023-04-25T13:03:50;8.50;;;2.53;;
29380;SDS011;16364;52.490;13.326;2023-04-25T13:06:16;2.47;;;1.43;;
29380;SDS011;16364;52.490;13.326;2023-04-25T13:08:41;8.00;;;1.57;;
29380;SDS011;16364;52.490;13.326;2023-04-25T13:11:07;5.33;;;2.07;;
29380;SDS011;16364;52.490;13.326;2023-04-25T13:13:32;5.53;;;1.80;;
29380;SDS011;16364;52.490;13.326;2023-04-25T13:15:59;4.27;;;1.53;;
29380;SDS011;16364;52.490;13.326;2023-04-25T13:18:25;4.93;;;1.60;;
29380;SDS011;16364;52.490;13.326;2023-04-25T13:20:51;3.67;;;1.47;;
29380;SDS011;16364;52.490;13.326;2023-04-25T13:23:17;4.80;;;1.50;;
29380;SDS011;16364;52.490;13.326;2023-04-25T13:25:42;3.53;;;1.30;;
29380;SDS011;16364;52.490;13.326;2023-04-25T13:28:07;1.83;;;1.20;;
29380;SDS011;16364;52.490;13.326;2023-04-25T13:30:33;3.63;;;1.27;;
29380;SDS011;16364;52.490;13.326;2023-04-25T13:32:58;2.83;;;1.57;;
29380;SDS011;16364;52.490;13.326;2023-04-25T13:35:28;4.93;;;1.27;;
29380;SDS011;16364;52.490;13.326;2023-04-25T13:37:53;2.83;;;1.10;;
29380;SDS011;16364;52.490;13.326;2023-04-25T13:40:19;2.77;;;1.60;;
29380;SDS011;16364;52.490;13.326;2023-04-25T13:42:44;3.23;;;1.30;;
29380;SDS011;16364;52.490;13.326;2023-04-25T13:45:10;2.33;;;1.40;;
29380;SDS011;16364;52.490;13.326;2023-04-25T13:47:35;3.67;;;1.53;;
29380;SDS011;16364;52.490;13.326;2023-04-25T13:50:00;5.43;;;1.27;;
29380;SDS011;16364;52.490;13.326;2023-04-25T13:52:28;3.07;;;1.47;;
29380;SDS011;16364;52.490;13.326;2023-04-25T13:54:53;3.23;;;1.50;;
29380;SDS011;16364;52.490;13.326;2023-04-25T13:57:18;2.03;;;1.43;;
29380;SDS011;16364;52.490;13.326;2023-04-25T13:59:43;3.83;;;1.80;;
29380;SDS011;16364;52.490;13.326;2023-04-25T14:02:09;3.33;;;1.60;;
29380;SDS011;16364;52.490;13.326;2023-04-25T14:04:34;2.90;;;1.43;;
29380;SDS011;16364;52.490;13.326;2023-04-25T14:06:59;3.90;;;1.40;;
29380;SDS011;16364;52.490;13.326;2023-04-25T14:09:25;4.90;;;1.90;;
29380;SDS011;16364;52.490;13.326;2023-04-25T14:11:52;5.17;;;2.00;;
29380;SDS011;16364;52.490;13.326;2023-04-25T14:14:18;2.13;;;1.20;;
29380;SDS011;16364;52.490;13.326;2023-04-25T14:16:43;5.10;;;1.40;;
29380;SDS011;16364;52.490;13.326;2023-04-25T14:19:08;2.63;;;1.40;;
29380;SDS011;16364;52.490;13.326;2023-04-25T14:21:33;2.53;;;1.70;;
29380;SDS011;16364;52.490;13.326;2023-04-25T14:23:58;4.03;;;1.33;;
29380;SDS011;16364;52.490;13.326;2023-04-25T14:26:24;3.20;;;1.50;;
29380;SDS011;16364;52.490;13.326;2023-04-25T14:28:50;2.93;;;1.60;;
29380;SDS011;16364;52.490;13.326;2023-04-25T14:31:16;1.30;;;1.07;;
29380;SDS011;16364;52.490;13.326;2023-04-25T14:36:16;4.90;;;1.60;;
29380;SDS011;16364;52.490;13.326;2023-04-25T14:38:41;3.13;;;1.80;;
29380;SDS011;16364;52.490;13.326;2023-04-25T14:41:07;3.07;;;1.50;;